Time;durP1;ratioP1;P1;durP2;ratioP2;P2;SDS_P1;SDS_P2;PMS_P1;PMS_P2;Temp;Humidity;BMP_temperature;BMP_pressure;BME280_temperature;BME280_humidity;BME280_pressure;Samples;Min_cycle;Max_cycle;Signal;HPM_P1;HPM_P2
2021/10/30 00:02:03;;;;;;;;;22.50;18.75;;;;;14.55;93.79;99938.22;5056042;28;45458;-59
2021/10/30 00:04:28;;;;;;;;;26.75;21.25;;;;;14.56;94.09;99930.28;5048018;28;45327;-60
2021/10/30 00:06:55;;;;;;;;;17.00;14.00;;;;;14.55;93.74;99928.59;5048353;28;47602;-61
2021/10/30 00:09:21;;;;;;;;;25.75;22.25;;;;;14.56;93.94;99921.59;5048214;28;45296;-60
2021/10/30 00:11:47;;;;;;;;;23.25;20.00;;;;;14.55;93.99;99912.91;5050127;28;45358;-60
2021/10/30 00:14:12;;;;;;;;;23.00;21.75;;;;;14.54;93.78;99906.00;5050152;28;45334;-60
2021/10/30 00:16:38;;;;;;;;;24.00;20.50;;;;;14.49;93.62;99897.56;5047464;28;46393;-60
2021/10/30 00:19:04;;;;;;;;;24.25;20.00;;;;;14.57;93.71;99908.44;5048173;28;45563;-60
2021/10/30 00:21:30;;;;;;;;;22.25;20.75;;;;;14.58;93.63;99907.50;5049688;28;45345;-60
2021/10/30 00:23:55;;;;;;;;;22.75;20.00;;;;;14.59;93.41;99897.88;5048924;28;47664;-60
2021/10/30 00:26:20;;;;;;;;;26.50;22.75;;;;;14.58;93.49;99902.25;5049302;28;45993;-60
2021/10/30 00:28:47;;;;;;;;;24.25;22.75;;;;;14.59;93.87;99900.50;5048144;28;45437;-61
2021/10/30 00:31:12;;;;;;;;;25.25;23.25;;;;;14.59;93.51;99893.50;5056307;28;45550;-60
2021/10/30 00:33:38;;;;;;;;;25.25;18.25;;;;;14.60;93.82;99887.31;5049939;28;45699;-59
2021/10/30 00:36:03;;;;;;;;;20.75;18.25;;;;;14.61;93.55;99896.00;5048822;28;46259;-61
2021/10/30 00:38:29;;;;;;;;;18.25;16.00;;;;;14.62;93.70;99884.66;5046402;28;45348;-61
2021/10/30 00:40:54;;;;;;;;;20.25;18.75;;;;;14.64;93.92;99884.56;5054866;28;45398;-62
2021/10/30 00:43:20;;;;;;;;;20.75;18.00;;;;;14.64;93.69;99880.19;5052915;28;45317;-62
2021/10/30 00:45:47;;;;;;;;;15.00;14.00;;;;;14.67;93.89;99868.69;5046601;28;45447;-62
2021/10/30 00:48:13;;;;;;;;;14.50;14.50;;;;;14.67;93.70;99866.06;5045180;28;45418;-61
2021/10/30 00:50:38;;;;;;;;;20.50;16.25;;;;;14.65;93.82;99866.16;5062616;28;45315;-62
2021/10/30 00:53:06;;;;;;;;;15.50;14.00;;;;;14.65;93.48;99860.09;5062223;28;45512;-62
2021/10/30 00:55:34;;;;;;;;;24.00;19.25;;;;;14.67;93.37;99859.06;5062289;28;45460;-62
2021/10/30 00:58:03;;;;;;;;;15.25;15.00;;;;;14.66;93.80;99848.69;5060514;28;45237;-62
2021/10/30 01:00:29;;;;;;;;;19.75;19.00;;;;;14.69;93.63;99849.34;5062391;28;45373;-62
2021/10/30 01:02:55;;;;;;;;;17.25;15.25;;;;;14.69;93.57;99853.75;5059102;28;45338;-62
2021/10/30 01:05:21;;;;;;;;;21.00;14.75;;;;;14.69;93.67;99851.97;5062245;28;46023;-62
2021/10/30 01:07:46;;;;;;;;;11.00;11.00;;;;;14.68;93.70;99854.69;5062158;28;45517;-62
2021/10/30 01:10:12;;;;;;;;;16.50;15.25;;;;;14.66;93.92;99846.09;5054841;28;45347;-62
2021/10/30 01:12:38;;;;;;;;;15.25;14.00;;;;;14.67;93.82;99848.59;5056048;28;45335;-62
2021/10/30 01:15:05;;;;;;;;;15.50;15.50;;;;;14.69;94.01;99844.13;5062010;28;45367;-62
2021/10/30 01:17:32;;;;;;;;;13.50;13.50;;;;;14.70;94.34;99840.59;5061990;28;46679;-62
2021/10/30 01:19:57;;;;;;;;;16.00;13.50;;;;;14.70;94.04;99835.34;5060524;28;45490;-62
2021/10/30 01:22:23;;;;;;;;;20.75;15.75;;;;;14.73;94.00;99836.94;5062761;28;45699;-62
2021/10/30 01:24:52;;;;;;;;;18.00;14.50;;;;;14.74;93.88;99836.84;5052999;28;47360;-62
2021/10/30 01:27:19;;;;;;;;;19.00;16.50;;;;;14.75;93.66;99833.28;5061121;28;45287;-62
2021/10/30 01:29:49;;;;;;;;;15.75;14.50;;;;;14.77;94.11;99831.44;5060802;28;45406;-60
2021/10/30 01:32:19;;;;;;;;;11.75;10.25;;;;;14.79;93.71;99826.94;5061706;28;45978;-60
2021/10/30 01:34:45;;;;;;;;;14.00;14.00;;;;;14.79;94.14;99826.94;5062074;28;45314;-60
2021/10/30 01:37:11;;;;;;;;;19.25;16.00;;;;;14.81;94.06;99819.84;5051275;28;45482;-60
2021/10/30 01:39:36;;;;;;;;;10.75;10.75;;;;;14.82;94.04;99813.72;5061902;28;45378;-61
2021/10/30 01:42:02;;;;;;;;;14.25;13.50;;;;;14.84;93.89;99814.47;5060522;28;45529;-61
2021/10/30 01:44:28;;;;;;;;;13.00;12.00;;;;;14.85;93.58;99807.44;5061141;28;46070;-61
2021/10/30 01:47:01;;;;;;;;;13.50;10.50;;;;;14.80;93.97;99794.63;5061414;28;45444;-60
2021/10/30 01:49:28;;;;;;;;;14.00;12.75;;;;;14.85;93.97;99799.59;5061176;28;45365;-62
2021/10/30 01:51:54;;;;;;;;;14.00;9.75;;;;;14.87;94.13;99805.59;5061218;28;45473;-62
2021/10/30 01:54:19;;;;;;;;;11.75;10.00;;;;;14.84;93.88;99795.31;5061325;28;45415;-62
2021/10/30 01:56:44;;;;;;;;;8.25;7.25;;;;;14.86;93.81;99794.28;5062656;28;45453;-63
2021/10/30 01:59:10;;;;;;;;;15.25;8.75;;;;;14.85;94.33;99791.75;5059875;28;45333;-62
2021/10/30 02:01:35;;;;;;;;;12.50;11.50;;;;;14.83;94.29;99784.00;5060944;28;45378;-61
2021/10/30 02:04:01;;;;;;;;;13.25;10.75;;;;;14.83;95.40;99773.53;5060123;28;45927;-60
2021/10/30 02:06:27;;;;;;;;;13.50;12.75;;;;;14.82;95.33;99778.88;5062567;28;45216;-61
2021/10/30 02:08:52;;;;;;;;;12.25;11.25;;;;;14.80;95.22;99778.09;5061172;28;45526;-60
2021/10/30 02:11:17;;;;;;;;;14.50;12.75;;;;;14.79;95.44;99776.41;5058194;28;45297;-60
2021/10/30 02:13:43;;;;;;;;;16.00;13.50;;;;;14.73;95.42;99759.31;5050356;28;45276;-60
2021/10/30 02:16:10;;;;;;;;;12.25;10.25;;;;;14.70;95.95;99756.91;5062143;28;45282;-61
2021/10/30 02:18:36;;;;;;;;;10.50;9.50;;;;;14.70;96.03;99738.59;5061419;28;45441;-61
2021/10/30 02:21:01;;;;;;;;;12.00;11.00;;;;;14.69;95.83;99742.13;5061082;28;45224;-61
2021/10/30 02:23:26;;;;;;;;;12.50;10.25;;;;;14.70;96.26;99738.59;5055291;28;46210;-61
2021/10/30 02:25:52;;;;;;;;;14.75;14.00;;;;;14.72;96.42;99741.09;5057399;28;45308;-61
2021/10/30 02:28:17;;;;;;;;;14.50;13.00;;;;;14.70;96.19;99722.91;5061046;28;45557;-61
2021/10/30 02:30:42;;;;;;;;;14.75;13.00;;;;;14.71;96.22;99727.19;5060794;28;45444;-60
2021/10/30 02:33:08;;;;;;;;;12.25;12.25;;;;;14.68;96.42;99719.53;5061066;28;45482;-60
2021/10/30 02:35:33;;;;;;;;;11.25;11.25;;;;;14.69;96.32;99715.16;5058893;28;45437;-60
2021/10/30 02:37:59;;;;;;;;;14.00;13.75;;;;;14.70;96.29;99717.66;5051064;28;45484;-61
2021/10/30 02:40:25;;;;;;;;;11.25;9.00;;;;;14.71;96.35;99705.44;5060455;28;45306;-61
2021/10/30 02:42:50;;;;;;;;;14.25;13.00;;;;;14.71;96.07;99700.19;5061820;28;45333;-60
2021/10/30 02:45:16;;;;;;;;;14.00;12.50;;;;;14.69;96.26;99699.44;5060471;28;45272;-62
2021/10/30 02:47:41;;;;;;;;;14.25;11.75;;;;;14.70;96.22;99699.38;5061015;28;45269;-61
2021/10/30 02:50:07;;;;;;;;;17.00;14.00;;;;;14.71;96.08;99693.19;5060497;28;45388;-61
2021/10/30 02:52:32;;;;;;;;;6.00;6.00;;;;;14.67;96.07;99688.25;5060452;28;46812;-61
2021/10/30 02:54:58;;;;;;;;;13.75;13.50;;;;;14.66;96.23;99679.56;5060250;28;45438;-61
2021/10/30 02:57:24;;;;;;;;;17.25;15.00;;;;;14.65;96.39;99683.13;5060394;28;45241;-61
2021/10/30 02:59:50;;;;;;;;;14.75;12.75;;;;;14.66;96.47;99671.72;5060274;28;45415;-61
2021/10/30 03:02:16;;;;;;;;;16.25;15.00;;;;;14.65;96.48;99654.34;5058977;28;46214;-62
2021/10/30 03:04:41;;;;;;;;;18.50;13.25;;;;;14.64;96.49;99644.84;5059108;28;45478;-62
2021/10/30 03:07:06;;;;;;;;;14.75;13.75;;;;;14.61;96.18;99648.44;5060825;28;45223;-62
2021/10/30 03:09:32;;;;;;;;;16.50;14.50;;;;;14.58;96.52;99640.78;5059362;28;45485;-62
2021/10/30 03:11:57;;;;;;;;;13.75;13.75;;;;;14.53;96.45;99635.00;5060258;28;45501;-64
2021/10/30 03:14:22;;;;;;;;;15.50;12.50;;;;;14.57;96.31;99631.28;5060036;28;45397;-63
2021/10/30 03:16:48;;;;;;;;;13.25;12.25;;;;;14.57;96.34;99625.22;5060447;28;45315;-62
2021/10/30 03:19:13;;;;;;;;;16.50;15.00;;;;;14.57;96.03;99619.97;5058717;28;45406;-63
2021/10/30 03:21:38;;;;;;;;;14.25;13.25;;;;;14.56;95.84;99618.28;5058848;28;46303;-63
2021/10/30 03:24:04;;;;;;;;;19.00;15.25;;;;;14.55;96.13;99608.78;5048733;28;45535;-62
2021/10/30 03:26:30;;;;;;;;;13.00;11.50;;;;;14.54;96.22;99610.56;5059594;28;45522;-62
2021/10/30 03:28:55;;;;;;;;;17.50;14.50;;;;;14.57;95.98;99614.75;5059739;28;45341;-62
2021/10/30 03:31:21;;;;;;;;;13.00;11.50;;;;;14.57;96.10;99602.50;5059884;28;46244;-63
2021/10/30 03:33:46;;;;;;;;;16.00;14.50;;;;;14.62;95.75;99594.41;5061067;28;45330;-62
2021/10/30 03:36:11;;;;;;;;;19.00;13.75;;;;;14.62;95.41;99591.78;5052063;28;45300;-62
2021/10/30 03:38:37;;;;;;;;;13.25;11.75;;;;;14.63;95.43;99582.16;5054957;28;45383;-64
2021/10/30 03:41:03;;;;;;;;;13.00;11.25;;;;;14.61;95.51;99585.69;5059446;28;45294;-64
2021/10/30 03:43:28;;;;;;;;;14.50;12.00;;;;;14.60;95.27;99581.41;5060281;28;45399;-65
2021/10/30 03:45:54;;;;;;;;;14.50;12.50;;;;;14.61;95.38;99569.16;5059519;28;45763;-65
2021/10/30 03:48:20;;;;;;;;;13.50;12.50;;;;;14.61;95.21;99574.41;5059576;28;45336;-65
2021/10/30 03:50:47;;;;;;;;;13.25;11.00;;;;;14.60;95.19;99580.56;5059665;28;46319;-63
2021/10/30 03:53:12;;;;;;;;;13.25;12.25;;;;;14.59;95.17;99578.88;5059559;28;45416;-63
2021/10/30 03:55:37;;;;;;;;;14.50;12.75;;;;;14.60;94.96;99581.41;5058392;28;45594;-61
2021/10/30 03:58:04;;;;;;;;;14.00;12.25;;;;;14.60;95.02;99577.94;5057874;28;45276;-62
2021/10/30 04:00:30;;;;;;;;;12.75;10.00;;;;;14.60;95.03;99580.56;5059504;28;45382;-62
2021/10/30 04:02:55;;;;;;;;;11.75;11.00;;;;;14.60;94.82;99576.16;5056497;28;45315;-62
2021/10/30 04:05:21;;;;;;;;;12.00;12.00;;;;;14.63;94.72;99576.94;5059941;28;45308;-62
2021/10/30 04:07:47;;;;;;;;;13.50;11.75;;;;;14.66;94.66;99576.75;5059510;28;45401;-62
2021/10/30 04:10:12;;;;;;;;;10.25;9.25;;;;;14.67;94.51;99570.56;5059064;28;46287;-62
2021/10/30 04:12:38;;;;;;;;;13.50;11.25;;;;;14.65;94.52;99570.69;5059250;28;45279;-62
2021/10/30 04:15:04;;;;;;;;;9.75;7.00;;;;;14.66;94.38;99567.13;5059612;28;45486;-62
2021/10/30 04:17:29;;;;;;;;;12.50;11.00;;;;;14.66;94.33;99564.50;5059447;28;45237;-62
2021/10/30 04:19:55;;;;;;;;;14.75;10.25;;;;;14.66;94.15;99567.13;5059510;28;45300;-62
2021/10/30 04:22:20;;;;;;;;;10.25;9.00;;;;;14.67;94.10;99563.56;5061252;28;45225;-62
2021/10/30 04:24:45;;;;;;;;;13.75;12.25;;;;;14.68;94.34;99562.63;5054558;28;45635;-61
2021/10/30 04:27:11;;;;;;;;;13.75;12.25;;;;;14.67;94.02;99568.81;5062824;28;45304;-61
2021/10/30 04:29:36;;;;;;;;;9.25;9.25;;;;;14.67;94.09;99562.72;5063044;28;45251;-64
2021/10/30 04:32:03;;;;;;;;;9.25;9.25;;;;;14.67;94.08;99562.72;5061239;28;45428;-61
2021/10/30 04:37:20;;;;;;;;;10.50;10.50;;;;;14.68;93.94;99561.78;5046643;28;45289;-63
2021/10/30 04:39:51;;;;;;;;;13.25;12.50;;;;;14.68;93.94;99564.41;5062519;28;46175;-62
2021/10/30 04:42:18;;;;;;;;;11.25;9.00;;;;;14.65;94.12;99567.22;5061974;28;45631;-63
2021/10/30 04:44:45;;;;;;;;;12.75;11.75;;;;;14.59;94.00;99561.41;5062672;28;45181;-63
2021/10/30 04:47:12;;;;;;;;;11.25;10.75;;;;;14.57;94.83;99554.63;5062651;28;45464;-62
2021/10/30 04:49:38;;;;;;;;;9.00;9.00;;;;;14.52;94.83;99547.06;5063431;28;46120;-62
2021/10/30 04:52:05;;;;;;;;;18.75;13.50;;;;;14.51;94.75;99549.78;5062440;28;45516;-63
2021/10/30 04:54:31;;;;;;;;;12.50;11.00;;;;;14.49;95.32;99549.03;5062173;28;45269;-60
2021/10/30 04:56:56;;;;;;;;;15.25;13.25;;;;;14.46;95.97;99547.47;5062432;28;45406;-60
2021/10/30 04:59:21;;;;;;;;;18.50;14.50;;;;;14.42;96.04;99547.72;5060889;28;45906;-59
2021/10/30 05:01:47;;;;;;;;;14.50;12.50;;;;;14.40;95.82;99532.09;5063012;28;45412;-60
2021/10/30 05:04:12;;;;;;;;;10.25;10.25;;;;;14.39;96.22;99537.44;5061286;28;45281;-59
2021/10/30 05:06:38;;;;;;;;;12.25;11.50;;;;;14.40;96.12;99532.09;5062178;28;45534;-60
2021/10/30 05:09:03;;;;;;;;;13.50;9.75;;;;;14.38;96.07;99535.75;5062153;28;46168;-60
2021/10/30 05:11:29;;;;;;;;;12.25;10.50;;;;;14.39;96.56;99526.97;5061949;28;45249;-62
2021/10/30 05:13:54;;;;;;;;;11.25;10.75;;;;;14.36;96.36;99527.16;5062298;28;45487;-62
2021/10/30 05:16:19;;;;;;;;;15.25;12.75;;;;;14.37;96.64;99534.06;5057200;28;45256;-59
2021/10/30 05:18:45;;;;;;;;;14.25;12.25;;;;;14.37;96.76;99528.84;5053656;28;45333;-66
2021/10/30 05:21:10;;;;;;;;;12.25;10.50;;;;;14.35;96.43;99536.78;5061593;28;45280;-60
2021/10/30 05:23:38;;;;;;;;;14.75;12.50;;;;;14.37;96.97;99528.84;5054043;28;45298;-59
2021/10/30 05:26:04;;;;;;;;;9.75;9.50;;;;;14.38;96.86;99518.28;5060937;28;45454;-58
2021/10/30 05:28:30;;;;;;;;;11.00;8.25;;;;;14.39;96.86;99521.75;5061852;28;46236;-59
2021/10/30 05:30:56;;;;;;;;;11.25;11.25;;;;;14.39;96.84;99521.75;5061609;28;45292;-59
2021/10/30 05:33:21;;;;;;;;;8.50;7.50;;;;;14.38;97.06;99517.44;5061317;28;45326;-60
2021/10/30 05:35:46;;;;;;;;;13.00;8.00;;;;;14.38;97.02;99525.28;5058230;28;45568;-60
2021/10/30 05:38:14;;;;;;;;;8.50;8.00;;;;;14.38;97.16;99523.53;5054217;28;46510;-59
2021/10/30 05:40:39;;;;;;;;;15.75;9.75;;;;;14.40;97.40;99528.66;5061780;28;45409;-63
2021/10/30 05:43:06;;;;;;;;;14.50;13.00;;;;;14.40;97.18;99518.19;5061743;28;45323;-62
2021/10/30 05:45:31;;;;;;;;;12.25;11.25;;;;;14.42;97.13;99526.81;5061758;28;45449;-63
2021/10/30 05:47:57;;;;;;;;;11.25;9.75;;;;;14.42;97.51;99524.19;5061690;28;46009;-63
2021/10/30 05:50:22;;;;;;;;;10.25;9.50;;;;;14.43;97.79;99529.34;5061661;28;45453;-60
2021/10/30 05:52:48;;;;;;;;;11.75;11.75;;;;;14.39;97.44;99513.91;5061558;28;45461;-60
2021/10/30 05:55:13;;;;;;;;;11.50;8.25;;;;;14.42;97.50;99518.97;5061573;28;45586;-59
2021/10/30 05:57:38;;;;;;;;;11.50;8.75;;;;;14.40;97.66;99523.41;5061096;28;46264;-59
2021/10/30 06:00:05;;;;;;;;;12.75;8.50;;;;;14.43;98.30;99518.03;5061696;28;45322;-60
2021/10/30 06:02:30;;;;;;;;;11.25;9.75;;;;;14.43;98.17;99510.19;5061812;28;45394;-58
2021/10/30 06:04:55;;;;;;;;;13.00;13.00;;;;;14.43;98.05;99512.81;5059921;28;45308;-59
2021/10/30 06:07:20;;;;;;;;;11.00;9.00;;;;;14.45;98.00;99508.34;5061291;28;46499;-58
2021/10/30 06:09:46;;;;;;;;;13.25;10.00;;;;;14.45;97.74;99505.72;5060979;28;45344;-60
2021/10/30 06:12:11;;;;;;;;;11.75;11.75;;;;;14.42;98.17;99514.56;5061273;28;45244;-58
2021/10/30 06:14:37;;;;;;;;;8.75;8.75;;;;;14.43;98.09;99513.66;5061308;28;45302;-61
2021/10/30 06:17:02;;;;;;;;;11.25;8.00;;;;;14.46;98.31;99515.25;5061255;28;45480;-60
2021/10/30 06:19:28;;;;;;;;;10.75;8.50;;;;;14.49;98.48;99520.28;5059541;28;45306;-59
2021/10/30 06:21:53;;;;;;;;;14.25;9.25;;;;;14.49;98.32;99502.81;5061290;28;45353;-59
2021/10/30 06:24:19;;;;;;;;;13.25;9.00;;;;;14.48;98.44;99510.75;5051983;28;45243;-59
2021/10/30 06:26:44;;;;;;;;;10.25;10.00;;;;;14.52;98.60;99513.06;5061101;28;45207;-58
2021/10/30 06:29:09;;;;;;;;;9.75;7.50;;;;;14.53;98.42;99504.31;5059855;28;45348;-59
2021/10/30 06:31:35;;;;;;;;;8.00;8.00;;;;;14.56;98.35;99504.09;5061046;28;45217;-61
2021/10/30 06:34:00;;;;;;;;;8.00;6.25;;;;;14.59;98.46;99503.91;5051305;28;45572;-61
2021/10/30 06:36:26;;;;;;;;;6.75;6.50;;;;;14.58;98.51;99509.22;5052745;28;45926;-59
2021/10/30 06:38:51;;;;;;;;;10.25;10.25;;;;;14.61;98.75;99519.47;5051394;28;45293;-60
2021/10/30 06:41:17;;;;;;;;;7.25;7.25;;;;;14.60;98.74;99517.81;5049556;28;45290;-59
2021/10/30 06:43:43;;;;;;;;;7.00;7.00;;;;;14.60;98.73;99516.03;5048335;28;45388;-59
2021/10/30 06:46:08;;;;;;;;;6.25;6.25;;;;;14.63;98.32;99506.34;5050159;28;46099;-60
2021/10/30 06:48:35;;;;;;;;;7.75;7.00;;;;;14.65;98.64;99505.31;5047710;28;45307;-64
2021/10/30 06:51:00;;;;;;;;;6.50;6.50;;;;;14.65;98.81;99510.53;5050526;28;45382;-61
2021/10/30 06:53:26;;;;;;;;;8.00;8.00;;;;;14.68;98.59;99518.19;5057835;28;45338;-63
2021/10/30 06:55:53;;;;;;;;;8.75;8.75;;;;;14.68;98.44;99512.94;5049490;28;46143;-63
2021/10/30 06:58:19;;;;;;;;;10.25;9.00;;;;;14.71;98.62;99504.06;5048925;28;46154;-64
2021/10/30 07:00:45;;;;;;;;;12.00;10.50;;;;;14.72;98.82;99497.91;5054183;28;45373;-60
2021/10/30 07:03:11;;;;;;;;;8.50;8.50;;;;;14.70;98.59;99500.63;5059711;28;45211;-61
2021/10/30 07:05:40;;;;;;;;;9.75;7.50;;;;;14.71;98.46;99491.81;5060769;28;46146;-59
2021/10/30 07:08:05;;;;;;;;;16.50;14.50;;;;;14.72;98.47;99490.88;5059504;28;45355;-59
2021/10/30 07:10:31;;;;;;;;;9.00;7.25;;;;;14.71;98.44;99489.22;5060398;28;45379;-60
2021/10/30 07:12:56;;;;;;;;;8.75;8.75;;;;;14.72;98.36;99487.44;5059811;28;45515;-59
2021/10/30 07:15:21;;;;;;;;;7.25;6.75;;;;;14.75;98.15;99495.91;5049459;28;46283;-61
2021/10/30 07:17:47;;;;;;;;;8.75;8.25;;;;;14.75;98.21;99489.84;5049785;28;45375;-61
2021/10/30 07:20:13;;;;;;;;;7.75;7.00;;;;;14.73;98.16;99495.19;5050150;28;45558;-61
2021/10/30 07:22:41;;;;;;;;;7.00;7.00;;;;;14.74;98.30;99496.84;5053142;28;45371;-60
2021/10/30 07:25:08;;;;;;;;;8.00;6.00;;;;;14.78;97.99;99507.97;5050027;28;46256;-58
2021/10/30 07:27:33;;;;;;;;;9.00;5.50;;;;;14.80;98.08;99503.47;5047198;28;45716;-61
2021/10/30 07:29:58;;;;;;;;;5.00;5.00;;;;;14.79;97.81;99497.41;5051900;28;45379;-62
2021/10/30 07:32:24;;;;;;;;;5.50;5.50;;;;;14.84;97.76;99508.41;5051005;28;45463;-60
2021/10/30 07:34:49;;;;;;;;;9.50;6.50;;;;;14.81;97.46;99498.13;5050048;28;45308;-62
2021/10/30 07:37:14;;;;;;;;;5.75;5.00;;;;;14.89;97.32;99497.66;5058065;28;45661;-62
2021/10/30 07:39:40;;;;;;;;;9.00;6.75;;;;;14.92;97.76;99502.69;5062646;28;45274;-61
2021/10/30 07:42:07;;;;;;;;;8.00;5.00;;;;;14.96;97.14;99511.16;5059540;28;45478;-64
2021/10/30 07:44:33;;;;;;;;;5.00;5.00;;;;;14.98;97.29;99509.28;5059810;28;46213;-63
2021/10/30 07:46:59;;;;;;;;;7.00;6.75;;;;;14.99;97.12;99511.78;5059562;28;45185;-63
2021/10/30 07:49:24;;;;;;;;;7.00;6.50;;;;;14.87;97.00;99502.16;5060023;28;45329;-62
2021/10/30 07:51:50;;;;;;;;;7.00;6.00;;;;;15.01;96.93;99530.84;5059451;28;45225;-62
2021/10/30 07:54:15;;;;;;;;;7.00;6.00;;;;;15.03;97.03;99531.63;5052712;28;46431;-62
2021/10/30 07:56:41;;;;;;;;;5.25;5.25;;;;;15.04;96.59;99540.31;5049374;28;45366;-60
2021/10/30 07:59:06;;;;;;;;;5.75;5.25;;;;;14.99;96.79;99534.50;5049728;28;45275;-61
2021/10/30 08:01:31;;;;;;;;;6.00;5.50;;;;;15.02;96.81;99537.78;5047323;28;45288;-61
2021/10/30 08:03:57;;;;;;;;;7.00;5.50;;;;;15.04;96.78;99538.53;5046859;28;45398;-62
2021/10/30 08:06:22;;;;;;;;;7.00;6.25;;;;;15.08;96.72;99540.00;5047822;28;45449;-60
2021/10/30 08:08:47;;;;;;;;;1.25;1.25;;;;;15.13;96.60;99544.91;5047933;28;45863;-61
2021/10/30 08:11:13;;;;;;;;;7.00;7.00;;;;;15.20;96.55;99548.81;5050370;28;45534;-61
2021/10/30 08:13:39;;;;;;;;;7.00;7.00;;;;;15.28;96.37;99548.31;5046513;28;46298;-61
2021/10/30 08:16:04;;;;;;;;;10.00;7.00;;;;;15.38;96.10;99549.38;5049388;28;45587;-61
2021/10/30 08:18:30;;;;;;;;;6.00;5.25;;;;;15.44;95.77;99549.81;5048077;28;45691;-61
2021/10/30 08:20:55;;;;;;;;;4.75;4.75;;;;;15.48;95.54;99559.16;5050399;28;45408;-62
2021/10/30 08:23:20;;;;;;;;;8.00;6.75;;;;;15.54;95.53;99560.50;5050140;28;45420;-61
2021/10/30 08:25:46;;;;;;;;;7.00;7.00;;;;;15.62;95.47;99563.50;5046104;28;45361;-63
2021/10/30 08:28:11;;;;;;;;;8.50;6.00;;;;;15.72;94.96;99553.25;5049264;28;45919;-61
2021/10/30 08:30:37;;;;;;;;;7.50;6.00;;;;;15.83;94.88;99561.22;5049263;28;45298;-63
2021/10/30 08:33:02;;;;;;;;;6.25;6.25;;;;;15.96;94.57;99561.22;5048459;28;46313;-63
2021/10/30 08:35:27;;;;;;;;;7.00;7.00;;;;;16.05;94.09;99558.81;5046540;28;45241;-65
2021/10/30 08:37:53;;;;;;;;;6.25;6.00;;;;;16.12;93.46;99554.81;5047616;28;45420;-64
2021/10/30 08:40:18;;;;;;;;;8.25;6.25;;;;;16.20;93.44;99558.66;5049251;28;45454;-64
2021/10/30 08:42:47;;;;;;;;;8.50;6.75;;;;;16.30;93.17;99551.84;5048204;28;45974;-63
2021/10/30 08:45:12;;;;;;;;;4.75;3.00;;;;;16.38;92.05;99557.38;5045167;28;45990;-63
2021/10/30 08:47:38;;;;;;;;;8.25;8.25;;;;;16.31;91.43;99549.13;5047795;28;45855;-62
2021/10/30 08:50:04;;;;;;;;;10.50;7.00;;;;;16.26;92.34;99558.28;5048032;28;45342;-61
2021/10/30 08:52:30;;;;;;;;;10.50;9.00;;;;;16.24;92.42;99560.16;5047567;28;45463;-62
2021/10/30 08:54:55;;;;;;;;;9.50;8.75;;;;;16.25;92.64;99557.44;5045860;28;45346;-63
2021/10/30 08:57:20;;;;;;;;;5.25;5.25;;;;;16.24;91.93;99560.16;5046911;28;45367;-64
2021/10/30 08:59:48;;;;;;;;;8.75;7.75;;;;;16.20;91.37;99548.19;5047927;28;45324;-64
2021/10/30 09:02:28;;;;;;;;;7.00;7.00;;;;;16.15;91.84;99563.41;5050658;28;45970;-66
2021/10/30 09:05:17;;;;;;;;;9.00;7.75;;;;;16.11;92.45;99568.03;5046454;28;45488;-64
2021/10/30 09:07:44;;;;;;;;;9.00;7.75;;;;;16.14;92.58;99562.56;5047243;28;45302;-65
2021/10/30 09:10:33;;;;;;;;;7.00;6.00;;;;;16.17;91.95;99558.88;5048528;28;45461;-63
2021/10/30 09:13:02;;;;;;;;;7.50;7.50;;;;;16.13;92.05;99553.88;5050861;28;46173;-65
2021/10/30 09:15:36;;;;;;;;;7.50;5.00;;;;;16.12;92.46;99553.97;5051015;28;45415;-63
2021/10/30 09:18:18;;;;;;;;;6.00;6.00;;;;;16.09;92.06;99549.78;5048496;28;45496;-63
2021/10/30 09:20:47;;;;;;;;;6.50;6.00;;;;;16.07;92.06;99554.28;5049949;28;45415;-64
2021/10/30 09:23:13;;;;;;;;;5.50;5.50;;;;;16.05;92.57;99555.34;5049907;28;46934;-63
2021/10/30 09:25:54;;;;;;;;;18.00;16.75;;;;;16.05;92.51;99557.97;5052040;28;45377;-64
2021/10/30 09:28:24;;;;;;;;;6.50;6.50;;;;;16.03;92.69;99558.06;5050329;28;45355;-66
2021/10/30 09:31:01;;;;;;;;;7.00;5.25;;;;;16.01;92.80;99570.41;5048977;28;45471;-65
2021/10/30 09:33:30;;;;;;;;;7.00;5.50;;;;;16.00;93.17;99574.00;5050757;28;45920;-69
2021/10/30 09:35:57;;;;;;;;;9.00;8.00;;;;;15.94;93.62;99571.78;5053756;28;45459;-66
2021/10/30 09:38:41;;;;;;;;;5.25;3.00;;;;;15.89;93.78;99568.66;5048835;28;45378;-63
2021/10/30 09:41:24;;;;;;;;;5.00;5.00;;;;;15.84;94.51;99576.00;5049570;28;45429;-68
2021/10/30 09:44:06;;;;;;;;;5.75;5.75;;;;;15.84;94.55;99572.53;5047538;28;46356;-63
2021/10/30 09:46:35;;;;;;;;;6.50;6.00;;;;;15.84;95.11;99575.16;5051083;28;45756;-64
2021/10/30 09:49:19;;;;;;;;;6.00;6.00;;;;;15.80;95.91;99575.34;5050802;28;45341;-69
2021/10/30 09:51:53;;;;;;;;;6.00;6.00;;;;;15.73;96.30;99586.34;5049327;28;45311;-68
2021/10/30 09:54:44;;;;;;;;;6.00;5.50;;;;;15.71;96.88;99575.13;5058729;28;46415;-67
2021/10/30 09:57:27;;;;;;;;;5.50;5.50;;;;;15.73;96.81;99581.09;5050973;28;45436;-68
2021/10/30 09:59:59;;;;;;;;;5.00;5.00;;;;;15.74;97.00;99585.41;5061260;28;45366;-69
2021/10/30 10:02:26;;;;;;;;;9.00;8.00;;;;;15.74;97.14;99588.84;5061154;28;45293;-69
2021/10/30 10:04:52;;;;;;;;;5.50;5.50;;;;;15.73;97.15;99570.63;5060014;28;45458;-69
2021/10/30 10:07:25;;;;;;;;;8.25;5.25;;;;;15.74;97.24;99578.38;5061317;28;45661;-66
2021/10/30 10:09:52;;;;;;;;;8.00;8.00;;;;;15.70;97.06;99574.31;5060946;28;45268;-66
2021/10/30 10:12:18;;;;;;;;;9.00;8.75;;;;;15.68;97.62;99577.97;5061244;28;45502;-62
2021/10/30 10:14:45;;;;;;;;;11.50;9.50;;;;;15.72;97.37;99576.81;5060884;28;45587;-65
2021/10/30 10:17:11;;;;;;;;;9.50;8.50;;;;;15.73;97.56;99581.09;5061080;28;45223;-63
2021/10/30 10:19:38;;;;;;;;;9.50;9.00;;;;;15.73;97.91;99587.19;5061008;28;45479;-59
2021/10/30 10:22:04;;;;;;;;;10.25;8.00;;;;;15.73;97.44;99589.81;5060832;28;45374;-60
2021/10/30 10:24:32;;;;;;;;;8.25;8.00;;;;;15.71;98.19;99583.84;5053692;28;45359;-60
2021/10/30 10:27:00;;;;;;;;;7.50;5.00;;;;;15.72;97.72;99587.28;5060843;28;45238;-58
2021/10/30 10:29:30;;;;;;;;;9.00;7.00;;;;;15.67;97.98;99592.84;5061147;28;45319;-60
2021/10/30 10:31:58;;;;;;;;;7.00;6.00;;;;;15.66;97.89;99592.94;5060616;28;45338;-58
2021/10/30 10:34:34;;;;;;;;;5.00;4.75;;;;;15.68;98.47;99593.69;5060910;28;47033;-62
2021/10/30 10:37:12;;;;;;;;;8.00;7.75;;;;;15.92;99.87;99597.25;5049432;28;45522;-44
2021/10/30 10:39:40;;;;;;;;;6.00;6.00;;;;;16.15;97.72;99598.31;5060946;28;45398;-57
2021/10/30 10:42:35;;;;;;;;;6.50;6.50;;;;;16.21;96.75;99589.19;5061528;28;45889;-61
2021/10/30 10:45:06;;;;;;;;;7.00;6.75;;;;;16.23;96.12;99595.19;5047265;28;45501;-58
2021/10/30 10:47:35;;;;;;;;;6.00;6.00;;;;;16.24;96.31;99589.00;5045990;28;45606;-59
2021/10/30 10:50:12;;;;;;;;;9.00;8.25;;;;;16.26;96.09;99593.19;5052136;28;45537;-61
2021/10/30 10:53:05;;;;;;;;;7.00;6.00;;;;;16.29;95.56;99595.59;5049065;28;45441;-59
2021/10/30 10:55:57;;;;;;;;;6.00;6.00;;;;;16.33;95.55;99594.44;5049024;28;46138;-62
2021/10/30 10:58:23;;;;;;;;;6.75;6.75;;;;;16.33;95.19;99601.47;5048983;28;46502;-59
2021/10/30 11:01:07;;;;;;;;;8.25;7.00;;;;;16.21;94.93;99595.25;5051028;28;45422;-57
2021/10/30 11:03:44;;;;;;;;;6.50;6.50;;;;;16.20;95.11;99595.38;5050817;28;45411;-57
2021/10/30 11:06:10;;;;;;;;;10.50;9.00;;;;;16.16;95.12;99589.50;5049335;28;46027;-61
2021/10/30 11:08:36;;;;;;;;;9.50;6.00;;;;;16.16;95.79;99593.91;5049639;28;45367;-60
2021/10/30 11:11:13;;;;;;;;;7.00;7.00;;;;;16.16;95.20;99589.50;5059163;28;45607;-59
2021/10/30 11:13:54;;;;;;;;;7.75;6.00;;;;;16.07;95.22;99587.53;5060233;28;45481;-62
2021/10/30 11:16:45;;;;;;;;;6.50;6.50;;;;;16.01;95.98;99572.19;5060162;28;46332;-62
2021/10/30 11:19:26;;;;;;;;;6.75;6.75;;;;;16.10;96.14;99595.19;5058191;28;45173;-62
2021/10/30 11:22:09;;;;;;;;;8.75;8.25;;;;;16.18;96.16;99592.03;5060161;28;45541;-60
2021/10/30 11:24:51;;;;;;;;;7.25;7.25;;;;;16.22;96.32;99585.63;5051002;28;45292;-59
2021/10/30 11:27:17;;;;;;;;;6.00;6.00;;;;;16.25;96.36;99583.66;5056830;28;48068;-59
2021/10/30 11:29:50;;;;;;;;;7.50;5.25;;;;;16.26;96.06;99581.88;5059440;28;45404;-62